sensor_id;sensor_type;location;lat;lon;timestamp;pressure;altitude;pressure_sealevel;temperature;humidity
13553;BME280;6847;48.830;9.116;2023-02-19T00:01:25;98460.16;;;13.13;57.22
13553;BME280;6847;48.830;9.116;2023-02-19T00:03:55;98425.97;;;13.02;57.24
13553;BME280;6847;48.830;9.116;2023-02-19T00:06:24;98449.31;;;13.18;56.75
13553;BME280;6847;48.830;9.116;2023-02-19T00:08:52;98447.66;;;13.17;57.39
13553;BME280;6847;48.830;9.116;2023-02-19T00:11:21;98447.94;;;13.15;57.45
13553;BME280;6847;48.830;9.116;2023-02-19T00:13:52;98441.69;;;13.15;57.25
13553;BME280;6847;48.830;9.116;2023-02-19T00:16:25;98440.06;;;13.14;57.71
13553;BME280;6847;48.830;9.116;2023-02-19T00:18:55;98445.50;;;13.14;57.34
13553;BME280;6847;48.830;9.116;2023-02-19T00:21:22;98440.06;;;13.14;57.65
13553;BME280;6847;48.830;9.116;2023-02-19T00:23:50;98432.97;;;13.13;58.04
13553;BME280;6847;48.830;9.116;2023-02-19T00:26:18;98351.19;;;12.55;57.22
13553;BME280;6847;48.830;9.116;2023-02-19T00:28:46;98356.91;;;12.58;57.36
13553;BME280;6847;48.830;9.116;2023-02-19T00:31:16;98406.47;;;12.89;58.01
13553;BME280;6847;48.830;9.116;2023-02-19T00:33:46;98418.88;;;13.06;58.06
13553;BME280;6847;48.830;9.116;2023-02-19T00:36:15;98446.56;;;13.18;57.97
13553;BME280;6847;48.830;9.116;2023-02-19T00:38:42;98445.75;;;13.17;57.42
13553;BME280;6847;48.830;9.116;2023-02-19T00:41:13;98446.84;;;13.16;57.84
13553;BME280;6847;48.830;9.116;2023-02-19T00:43:56;98448.47;;;13.17;57.67
13553;BME280;6847;48.830;9.116;2023-02-19T00:46:26;98447.13;;;13.15;58.35
13553;BME280;6847;48.830;9.116;2023-02-19T00:48:58;98447.69;;;13.12;57.92
13553;BME280;6847;48.830;9.116;2023-02-19T00:51:31;98355.03;;;12.49;58.52
13553;BME280;6847;48.830;9.116;2023-02-19T00:53:58;98405.69;;;12.79;58.00
13553;BME280;6847;48.830;9.116;2023-02-19T00:56:33;98443.34;;;13.06;58.54
13553;BME280;6847;48.830;9.116;2023-02-19T00:59:01;98424.34;;;13.01;58.05
13553;BME280;6847;48.830;9.116;2023-02-19T01:01:28;98408.59;;;12.97;58.20
13553;BME280;6847;48.830;9.116;2023-02-19T01:03:57;98428.09;;;13.10;58.32
13553;BME280;6847;48.830;9.116;2023-02-19T01:06:25;98431.38;;;13.12;58.32
13553;BME280;6847;48.830;9.116;2023-02-19T01:08:54;98414.25;;;13.11;58.37
13553;BME280;6847;48.830;9.116;2023-02-19T01:11:21;98413.44;;;13.06;58.19
13553;BME280;6847;48.830;9.116;2023-02-19T01:13:50;98412.06;;;13.08;57.97
13553;BME280;6847;48.830;9.116;2023-02-19T01:16:20;98320.56;;;12.44;58.27
13553;BME280;6847;48.830;9.116;2023-02-19T01:18:48;98413.44;;;13.06;58.33
13553;BME280;6847;48.830;9.116;2023-02-19T01:21:22;98373.09;;;12.79;58.40
13553;BME280;6847;48.830;9.116;2023-02-19T01:23:50;98415.59;;;13.09;58.89
13553;BME280;6847;48.830;9.116;2023-02-19T01:26:19;98405.00;;;13.07;58.38
13553;BME280;6847;48.830;9.116;2023-02-19T01:28:49;98403.66;;;13.05;58.38
13553;BME280;6847;48.830;9.116;2023-02-19T01:31:18;98402.56;;;13.06;59.12
13553;BME280;6847;48.830;9.116;2023-02-19T01:33:48;98402.28;;;13.07;58.52
13553;BME280;6847;48.830;9.116;2023-02-19T01:36:20;98400.94;;;13.10;58.97
13553;BME280;6847;48.830;9.116;2023-02-19T01:38:52;98304.50;;;12.53;58.93
13553;BME280;6847;48.830;9.116;2023-02-19T01:41:21;98284.16;;;12.45;58.30
13553;BME280;6847;48.830;9.116;2023-02-19T01:43:55;98391.66;;;13.16;58.46
13553;BME280;6847;48.830;9.116;2023-02-19T01:46:24;98407.38;;;13.24;59.11
13553;BME280;6847;48.830;9.116;2023-02-19T01:48:53;98404.38;;;13.25;59.14
13553;BME280;6847;48.830;9.116;2023-02-19T01:51:27;98404.66;;;13.29;58.36
13553;BME280;6847;48.830;9.116;2023-02-19T01:53:58;98401.66;;;13.30;58.48
13553;BME280;6847;48.830;9.116;2023-02-19T01:56:26;98262.75;;;12.39;58.70
13553;BME280;6847;48.830;9.116;2023-02-19T01:58:54;98401.38;;;13.27;58.65
13553;BME280;6847;48.830;9.116;2023-02-19T02:01:22;98392.69;;;13.25;58.92
13553;BME280;6847;48.830;9.116;2023-02-19T02:03:49;98391.66;;;13.21;58.59
13553;BME280;6847;48.830;9.116;2023-02-19T02:06:21;98385.72;;;13.04;59.24
13553;BME280;6847;48.830;9.116;2023-02-19T02:08:54;98406.38;;;13.05;58.77
13553;BME280;6847;48.830;9.116;2023-02-19T02:11:43;98410.22;;;12.98;59.12
13553;BME280;6847;48.830;9.116;2023-02-19T02:14:11;98409.16;;;12.94;59.72
13553;BME280;6847;48.830;9.116;2023-02-19T02:16:45;98401.59;;;12.86;59.17
13553;BME280;6847;48.830;9.116;2023-02-19T02:19:29;98346.88;;;12.49;59.58
13553;BME280;6847;48.830;9.116;2023-02-19T02:22:06;98388.91;;;12.72;59.66
13553;BME280;6847;48.830;9.116;2023-02-19T02:25:07;98379.44;;;12.59;59.94
13553;BME280;6847;48.830;9.116;2023-02-19T02:27:55;98358.91;;;12.33;60.02
13553;BME280;6847;48.830;9.116;2023-02-19T02:30:41;98358.63;;;12.29;60.29
13553;BME280;6847;48.830;9.116;2023-02-19T02:33:24;98301.50;;;11.80;60.17
13553;BME280;6847;48.830;9.116;2023-02-19T02:35:55;98359.78;;;12.13;60.62
13553;BME280;6847;48.830;9.116;2023-02-19T02:38:26;98358.16;;;12.12;60.39
13553;BME280;6847;48.830;9.116;2023-02-19T02:40:56;98353.28;;;12.09;60.92
13553;BME280;6847;48.830;9.116;2023-02-19T02:43:23;98356.25;;;12.07;60.81
13553;BME280;6847;48.830;9.116;2023-02-19T02:45:53;98358.97;;;12.12;60.95
13553;BME280;6847;48.830;9.116;2023-02-19T02:48:43;98360.03;;;12.16;61.56
13553;BME280;6847;48.830;9.116;2023-02-19T02:51:16;98363.28;;;12.18;62.50
13553;BME280;6847;48.830;9.116;2023-02-19T02:53:52;98358.41;;;12.20;63.11
13553;BME280;6847;48.830;9.116;2023-02-19T02:56:38;98361.38;;;12.24;63.10
13553;BME280;6847;48.830;9.116;2023-02-19T02:59:08;98328.06;;;12.03;64.41
13553;BME280;6847;48.830;9.116;2023-02-19T03:01:40;98358.38;;;12.26;64.06
13553;BME280;6847;48.830;9.116;2023-02-19T03:04:31;98361.09;;;12.26;64.19
13553;BME280;6847;48.830;9.116;2023-02-19T03:07:05;98341.06;;;12.11;65.44
13553;BME280;6847;48.830;9.116;2023-02-19T03:09:36;98355.69;;;12.15;64.86
13553;BME280;6847;48.830;9.116;2023-02-19T03:12:08;98352.97;;;12.15;65.19
13553;BME280;6847;48.830;9.116;2023-02-19T03:14:57;98355.72;;;12.10;65.84
13553;BME280;6847;48.830;9.116;2023-02-19T03:17:59;98343.78;;;12.06;66.69
13553;BME280;6847;48.830;9.116;2023-02-19T03:20:46;98343.78;;;12.01;66.51
13553;BME280;6847;48.830;9.116;2023-02-19T03:23:16;98352.47;;;11.98;67.19
13553;BME280;6847;48.830;9.116;2023-02-19T03:25:47;98349.78;;;11.93;67.06
13553;BME280;6847;48.830;9.116;2023-02-19T03:28:33;98338.66;;;11.90;67.80
13553;BME280;6847;48.830;9.116;2023-02-19T03:31:21;98328.66;;;11.80;68.17
13553;BME280;6847;48.830;9.116;2023-02-19T03:33:56;98344.38;;;11.93;67.79
13553;BME280;6847;48.830;9.116;2023-02-19T03:36:30;98324.84;;;11.81;68.27
13553;BME280;6847;48.830;9.116;2023-02-19T03:39:02;98317.78;;;11.70;68.47
13553;BME280;6847;48.830;9.116;2023-02-19T03:41:34;98219.44;;;11.13;68.74
13553;BME280;6847;48.830;9.116;2023-02-19T03:44:08;98308.03;;;11.59;68.71
13553;BME280;6847;48.830;9.116;2023-02-19T03:46:44;98345.72;;;11.85;68.36
13553;BME280;6847;48.830;9.116;2023-02-19T03:49:17;98342.19;;;11.85;68.88
13553;BME280;6847;48.830;9.116;2023-02-19T03:51:50;98324.03;;;11.70;69.09
13553;BME280;6847;48.830;9.116;2023-02-19T03:56:52;98354.13;;;11.89;68.59
13553;BME280;6847;48.830;9.116;2023-02-19T03:59:27;98352.50;;;11.88;69.32
13553;BME280;6847;48.830;9.116;2023-02-19T04:02:02;98352.50;;;11.88;69.48
13553;BME280;6847;48.830;9.116;2023-02-19T04:04:35;98359.00;;;11.92;69.31
13553;BME280;6847;48.830;9.116;2023-02-19T04:07:04;98364.41;;;11.97;69.81
13553;BME280;6847;48.830;9.116;2023-02-19T04:09:35;98361.47;;;11.94;69.85
13553;BME280;6847;48.830;9.116;2023-02-19T04:12:04;98367.13;;;12.02;69.63
13553;BME280;6847;48.830;9.116;2023-02-19T04:14:35;98370.66;;;12.03;69.41
13553;BME280;6847;48.830;9.116;2023-02-19T04:17:10;98371.47;;;12.03;69.85
13553;BME280;6847;48.830;9.116;2023-02-19T04:19:45;98378.53;;;12.04;69.92
13553;BME280;6847;48.830;9.116;2023-02-19T04:22:15;98333.50;;;11.73;70.18
13553;BME280;6847;48.830;9.116;2023-02-19T04:24:47;98309.38;;;11.61;70.13
13553;BME280;6847;48.830;9.116;2023-02-19T04:27:20;98370.13;;;12.01;70.41
13553;BME280;6847;48.830;9.116;2023-02-19T04:29:48;98286.34;;;11.38;69.86
13553;BME280;6847;48.830;9.116;2023-02-19T04:32:15;98380.97;;;11.96;70.25
13553;BME280;6847;48.830;9.116;2023-02-19T04:34:44;98256.31;;;11.15;70.03
13553;BME280;6847;48.830;9.116;2023-02-19T04:37:12;98393.22;;;11.93;70.48
13553;BME280;6847;48.830;9.116;2023-02-19T04:39:39;98399.72;;;11.92;70.89
13553;BME280;6847;48.830;9.116;2023-02-19T04:42:06;98396.72;;;11.89;70.34
13553;BME280;6847;48.830;9.116;2023-02-19T04:44:33;98399.16;;;11.90;70.40
13553;BME280;6847;48.830;9.116;2023-02-19T04:47:03;98403.25;;;11.82;70.91
13553;BME280;6847;48.830;9.116;2023-02-19T04:49:32;98395.38;;;11.86;71.10
13553;BME280;6847;48.830;9.116;2023-02-19T04:52:04;98409.50;;;11.83;70.94
13553;BME280;6847;48.830;9.116;2023-02-19T04:54:31;98407.06;;;11.81;71.17
13553;BME280;6847;48.830;9.116;2023-02-19T04:56:59;98412.75;;;11.80;71.35
13553;BME280;6847;48.830;9.116;2023-02-19T04:59:29;98425.78;;;11.83;71.62
13553;BME280;6847;48.830;9.116;2023-02-19T05:01:57;98418.44;;;11.83;70.64
13553;BME280;6847;48.830;9.116;2023-02-19T05:04:31;98420.09;;;11.84;70.74
13553;BME280;6847;48.830;9.116;2023-02-19T05:06:58;98411.13;;;11.84;71.63
13553;BME280;6847;48.830;9.116;2023-02-19T05:09:28;98418.16;;;11.85;70.79
13553;BME280;6847;48.830;9.116;2023-02-19T05:12:01;98425.78;;;11.83;71.00
13553;BME280;6847;48.830;9.116;2023-02-19T05:14:28;98416.56;;;11.84;70.94
13553;BME280;6847;48.830;9.116;2023-02-19T05:16:56;98425.78;;;11.83;71.13
13553;BME280;6847;48.830;9.116;2023-02-19T05:19:24;98424.69;;;11.79;70.70
13553;BME280;6847;48.830;9.116;2023-02-19T05:21:51;98428.22;;;11.84;71.16
13553;BME280;6847;48.830;9.116;2023-02-19T05:24:24;98423.56;;;11.85;71.09
13553;BME280;6847;48.830;9.116;2023-02-19T05:27:01;98426.84;;;11.87;71.23
13553;BME280;6847;48.830;9.116;2023-02-19T05:29:30;98420.88;;;11.90;70.72
13553;BME280;6847;48.830;9.116;2023-02-19T05:31:57;98436.63;;;11.93;70.50
13553;BME280;6847;48.830;9.116;2023-02-19T05:34:25;98436.06;;;11.96;70.85
13553;BME280;6847;48.830;9.116;2023-02-19T05:36:52;98437.69;;;11.97;70.88
13553;BME280;6847;48.830;9.116;2023-02-19T05:39:21;98436.06;;;11.96;70.88
13553;BME280;6847;48.830;9.116;2023-02-19T05:41:48;98446.66;;;11.93;71.21
13553;BME280;6847;48.830;9.116;2023-02-19T05:44:16;98444.75;;;11.88;71.06
13553;BME280;6847;48.830;9.116;2023-02-19T05:46:43;98449.91;;;11.84;71.58
13553;BME280;6847;48.830;9.116;2023-02-19T05:49:11;98452.09;;;11.82;70.87
13553;BME280;6847;48.830;9.116;2023-02-19T05:51:38;98453.97;;;11.82;70.97
13553;BME280;6847;48.830;9.116;2023-02-19T05:54:08;98442.06;;;11.83;71.45
13553;BME280;6847;48.830;9.116;2023-02-19T05:56:36;98452.91;;;11.83;70.67
13553;BME280;6847;48.830;9.116;2023-02-19T05:59:15;98450.72;;;11.85;71.33
13553;BME280;6847;48.830;9.116;2023-02-19T06:01:47;98427.34;;;11.69;71.44
13553;BME280;6847;48.830;9.116;2023-02-19T06:04:14;98457.78;;;11.81;70.98
13553;BME280;6847;48.830;9.116;2023-02-19T06:06:53;98449.63;;;11.81;71.19
13553;BME280;6847;48.830;9.116;2023-02-19T06:09:20;98461.03;;;11.78;71.17
13553;BME280;6847;48.830;9.116;2023-02-19T06:11:50;98431.16;;;11.53;71.27
13553;BME280;6847;48.830;9.116;2023-02-19T06:14:19;98432.78;;;11.54;71.58
13553;BME280;6847;48.830;9.116;2023-02-19T06:16:47;98469.16;;;11.73;71.27
13553;BME280;6847;48.830;9.116;2023-02-19T06:19:13;98463.44;;;11.64;71.57
13553;BME280;6847;48.830;9.116;2023-02-19T06:21:40;98467.00;;;11.75;71.49
13553;BME280;6847;48.830;9.116;2023-02-19T06:24:08;98476.75;;;11.76;70.84
13553;BME280;6847;48.830;9.116;2023-02-19T06:26:35;98475.16;;;11.75;71.42
13553;BME280;6847;48.830;9.116;2023-02-19T06:29:04;98468.63;;;11.76;71.38
13553;BME280;6847;48.830;9.116;2023-02-19T06:31:31;98477.28;;;11.73;71.14
13553;BME280;6847;48.830;9.116;2023-02-19T06:34:02;98413.78;;;11.38;71.04
13553;BME280;6847;48.830;9.116;2023-02-19T06:36:29;98475.16;;;11.75;71.11
13553;BME280;6847;48.830;9.116;2023-02-19T06:38:58;98487.59;;;11.76;71.03
13553;BME280;6847;48.830;9.116;2023-02-19T06:41:25;98475.13;;;11.80;71.11
13553;BME280;6847;48.830;9.116;2023-02-19T06:43:53;98496.84;;;11.80;70.96
13553;BME280;6847;48.830;9.116;2023-02-19T06:46:20;98486.00;;;11.75;71.75
13553;BME280;6847;48.830;9.116;2023-02-19T06:48:47;98505.25;;;11.89;70.89
13553;BME280;6847;48.830;9.116;2023-02-19T06:51:16;98481.06;;;11.72;70.90
13553;BME280;6847;48.830;9.116;2023-02-19T06:53:47;98407.28;;;11.24;70.82
13553;BME280;6847;48.830;9.116;2023-02-19T06:56:22;98524.53;;;11.97;71.15
13553;BME280;6847;48.830;9.116;2023-02-19T06:58:49;98528.31;;;11.96;70.34
13553;BME280;6847;48.830;9.116;2023-02-19T07:01:16;98517.47;;;11.96;71.21
13553;BME280;6847;48.830;9.116;2023-02-19T07:03:43;98504.97;;;11.95;70.84
13553;BME280;6847;48.830;9.116;2023-02-19T07:06:09;98509.88;;;11.88;71.01
13553;BME280;6847;48.830;9.116;2023-02-19T07:08:38;98517.47;;;12.01;70.61
13553;BME280;6847;48.830;9.116;2023-02-19T07:11:05;98515.84;;;12.05;70.24
13553;BME280;6847;48.830;9.116;2023-02-19T07:13:31;98483.56;;;11.83;69.84
13553;BME280;6847;48.830;9.116;2023-02-19T07:15:59;98399.41;;;11.23;69.49
13553;BME280;6847;48.830;9.116;2023-02-19T07:18:26;98494.69;;;11.82;69.57
13553;BME280;6847;48.830;9.116;2023-02-19T07:20:53;98510.97;;;12.12;69.65
13553;BME280;6847;48.830;9.116;2023-02-19T07:23:20;98541.91;;;12.21;68.55
13553;BME280;6847;48.830;9.116;2023-02-19T07:25:49;98542.16;;;12.25;68.51
13553;BME280;6847;48.830;9.116;2023-02-19T07:28:17;98535.13;;;12.29;68.33
13553;BME280;6847;48.830;9.116;2023-02-19T07:30:45;98557.13;;;12.33;68.55
13553;BME280;6847;48.830;9.116;2023-02-19T07:33:13;98551.38;;;12.34;68.57
13553;BME280;6847;48.830;9.116;2023-02-19T07:35:44;98531.06;;;12.21;68.11
13553;BME280;6847;48.830;9.116;2023-02-19T07:38:11;98528.31;;;12.27;67.84
13553;BME280;6847;48.830;9.116;2023-02-19T07:40:38;98556.56;;;12.41;67.71
13553;BME280;6847;48.830;9.116;2023-02-19T07:43:07;98554.66;;;12.46;67.91
13553;BME280;6847;48.830;9.116;2023-02-19T07:45:33;98554.66;;;12.51;66.93
13553;BME280;6847;48.830;9.116;2023-02-19T07:48:00;98566.31;;;12.57;67.52
13553;BME280;6847;48.830;9.116;2023-02-19T07:50:27;98570.41;;;12.59;66.79
13553;BME280;6847;48.830;9.116;2023-02-19T07:52:55;98577.47;;;12.60;67.21
13553;BME280;6847;48.830;9.116;2023-02-19T07:55:24;98584.78;;;12.65;66.70
13553;BME280;6847;48.830;9.116;2023-02-19T07:57:51;98580.44;;;12.69;66.94
13553;BME280;6847;48.830;9.116;2023-02-19T08:00:20;98588.56;;;12.74;66.56
13553;BME280;6847;48.830;9.116;2023-02-19T08:02:51;98588.03;;;12.77;66.58
13553;BME280;6847;48.830;9.116;2023-02-19T08:05:26;98568.47;;;12.65;66.49
13553;BME280;6847;48.830;9.116;2023-02-19T08:07:56;98569.03;;;12.67;66.14
13553;BME280;6847;48.830;9.116;2023-02-19T08:10:27;98584.75;;;12.85;66.03
13553;BME280;6847;48.830;9.116;2023-02-19T08:13:13;98591.25;;;12.94;65.47
13553;BME280;6847;48.830;9.116;2023-02-19T08:15:50;98588.53;;;12.94;65.71
13553;BME280;6847;48.830;9.116;2023-02-19T08:18:20;98588.00;;;12.97;65.41
13553;BME280;6847;48.830;9.116;2023-02-19T08:20:47;98590.16;;;12.95;65.83
13553;BME280;6847;48.830;9.116;2023-02-19T08:23:24;98590.72;;;12.92;65.41
13553;BME280;6847;48.830;9.116;2023-02-19T08:25:51;98601.56;;;13.03;65.20
13553;BME280;6847;48.830;9.116;2023-02-19T08:28:18;98599.66;;;13.08;65.27
13553;BME280;6847;48.830;9.116;2023-02-19T08:30:46;98612.41;;;13.13;65.50
13553;BME280;6847;48.830;9.116;2023-02-19T08:33:16;98580.91;;;12.96;65.32
13553;BME280;6847;48.830;9.116;2023-02-19T08:35:43;98585.25;;;13.03;65.23
13553;BME280;6847;48.830;9.116;2023-02-19T08:38:11;98615.97;;;13.18;64.76
13553;BME280;6847;48.830;9.116;2023-02-19T08:40:39;98615.69;;;13.15;64.46
13553;BME280;6847;48.830;9.116;2023-02-19T08:43:10;98604.81;;;13.15;64.49
13553;BME280;6847;48.830;9.116;2023-02-19T08:45:37;98535.88;;;12.65;64.46
13553;BME280;6847;48.830;9.116;2023-02-19T08:48:04;98609.16;;;13.16;64.37
13553;BME280;6847;48.830;9.116;2023-02-19T08:50:32;98618.16;;;13.16;64.23
13553;BME280;6847;48.830;9.116;2023-02-19T08:53:00;98609.69;;;13.13;64.26
13553;BME280;6847;48.830;9.116;2023-02-19T08:55:27;98610.25;;;13.10;64.14
13553;BME280;6847;48.830;9.116;2023-02-19T08:57:54;98617.88;;;13.03;64.39
13553;BME280;6847;48.830;9.116;2023-02-19T09:00:21;98622.25;;;12.98;63.84
13553;BME280;6847;48.830;9.116;2023-02-19T09:02:51;98519.63;;;12.35;64.18
13553;BME280;6847;48.830;9.116;2023-02-19T09:05:18;98607.06;;;12.62;63.88
13553;BME280;6847;48.830;9.116;2023-02-19T09:07:47;98484.31;;;11.69;63.67
13553;BME280;6847;48.830;9.116;2023-02-19T09:10:14;98647.28;;;12.70;64.07
13553;BME280;6847;48.830;9.116;2023-02-19T09:12:40;98647.28;;;12.70;63.83
13553;BME280;6847;48.830;9.116;2023-02-19T09:15:08;98643.47;;;12.71;64.19
13553;BME280;6847;48.830;9.116;2023-02-19T09:17:35;98654.88;;;12.78;63.91
13553;BME280;6847;48.830;9.116;2023-02-19T09:20:03;98655.41;;;12.85;63.67
13553;BME280;6847;48.830;9.116;2023-02-19T09:22:30;98653.22;;;12.97;63.43
13553;BME280;6847;48.830;9.116;2023-02-19T09:25:00;98671.69;;;13.06;63.24
13553;BME280;6847;48.830;9.116;2023-02-19T09:27:29;98618.44;;;12.84;63.11
13553;BME280;6847;48.830;9.116;2023-02-19T09:29:58;98666.53;;;13.24;63.23
13553;BME280;6847;48.830;9.116;2023-02-19T09:32:25;98671.16;;;13.29;62.60
13553;BME280;6847;48.830;9.116;2023-02-19T09:34:58;98630.63;;;13.12;62.79
13553;BME280;6847;48.830;9.116;2023-02-19T09:37:25;98678.16;;;13.45;62.54
13553;BME280;6847;48.830;9.116;2023-02-19T09:39:53;98675.97;;;13.52;62.56
13553;BME280;6847;48.830;9.116;2023-02-19T09:42:23;98681.66;;;13.56;62.37
13553;BME280;6847;48.830;9.116;2023-02-19T09:44:52;98672.41;;;13.57;62.02
13553;BME280;6847;48.830;9.116;2023-02-19T09:47:21;98668.34;;;13.59;62.58
13553;BME280;6847;48.830;9.116;2023-02-19T09:49:51;98670.50;;;13.57;62.81
13553;BME280;6847;48.830;9.116;2023-02-19T09:52:26;98665.03;;;13.67;62.24
13553;BME280;6847;48.830;9.116;2023-02-19T09:54:56;98668.75;;;13.87;61.79
13553;BME280;6847;48.830;9.116;2023-02-19T09:57:29;98678.91;;;14.25;61.56
13553;BME280;6847;48.830;9.116;2023-02-19T10:00:05;98678.75;;;14.51;61.25
13553;BME280;6847;48.830;9.116;2023-02-19T10:02:32;98669.13;;;14.63;60.93
13553;BME280;6847;48.830;9.116;2023-02-19T10:05:02;98552.47;;;13.97;60.97
13553;BME280;6847;48.830;9.116;2023-02-19T10:07:34;98589.50;;;14.32;60.74
13553;BME280;6847;48.830;9.116;2023-02-19T10:10:19;98669.72;;;14.89;60.45
13553;BME280;6847;48.830;9.116;2023-02-19T10:12:51;98664.19;;;14.99;60.54
13553;BME280;6847;48.830;9.116;2023-02-19T10:15:23;98566.22;;;14.50;60.36
13553;BME280;6847;48.830;9.116;2023-02-19T10:17:50;98669.97;;;15.22;60.03
13553;BME280;6847;48.830;9.116;2023-02-19T10:20:19;98681.66;;;15.27;59.91
13553;BME280;6847;48.830;9.116;2023-02-19T10:22:50;98672.22;;;15.14;59.93
13553;BME280;6847;48.830;9.116;2023-02-19T10:25:18;98672.75;;;15.16;59.91
13553;BME280;6847;48.830;9.116;2023-02-19T10:27:46;98686.22;;;15.08;59.82
13553;BME280;6847;48.830;9.116;2023-02-19T10:30:19;98597.09;;;14.40;59.82
13553;BME280;6847;48.830;9.116;2023-02-19T10:32:59;98711.03;;;15.06;59.82
13553;BME280;6847;48.830;9.116;2023-02-19T10:35:27;98700.13;;;15.06;59.72
13553;BME280;6847;48.830;9.116;2023-02-19T10:37:54;98707.13;;;15.17;59.93
13553;BME280;6847;48.830;9.116;2023-02-19T10:40:25;98683.47;;;15.37;59.17
13553;BME280;6847;48.830;9.116;2023-02-19T10:42:55;98709.69;;;15.85;58.67
13553;BME280;6847;48.830;9.116;2023-02-19T10:45:28;98726.34;;;16.08;58.38
13553;BME280;6847;48.830;9.116;2023-02-19T10:48:01;98682.00;;;15.73;58.31
13553;BME280;6847;48.830;9.116;2023-02-19T10:50:30;98719.03;;;15.79;58.25
13553;BME280;6847;48.830;9.116;2023-02-19T10:52:59;98724.03;;;15.72;58.52
13553;BME280;6847;48.830;9.116;2023-02-19T10:55:30;98727.94;;;15.66;58.48
13553;BME280;6847;48.830;9.116;2023-02-19T10:58:21;98732.97;;;15.54;58.41
13553;BME280;6847;48.830;9.116;2023-02-19T11:01:24;98735.31;;;15.37;58.67
13553;BME280;6847;48.830;9.116;2023-02-19T11:04:14;98732.78;;;15.16;58.40
13553;BME280;6847;48.830;9.116;2023-02-19T11:06:41;98744.88;;;15.00;58.37
13553;BME280;6847;48.830;9.116;2023-02-19T11:09:22;98733.03;;;14.86;58.56
13553;BME280;6847;48.830;9.116;2023-02-19T11:11:51;98724.94;;;14.71;58.62
13553;BME280;6847;48.830;9.116;2023-02-19T11:14:23;98721.19;;;14.62;58.45
13553;BME280;6847;48.830;9.116;2023-02-19T11:16:53;98743.53;;;14.64;58.47
13553;BME280;6847;48.830;9.116;2023-02-19T11:19:24;98722.13;;;14.42;58.51
13553;BME280;6847;48.830;9.116;2023-02-19T11:21:52;98729.97;;;14.54;58.50
13553;BME280;6847;48.830;9.116;2023-02-19T11:24:25;98716.94;;;14.46;58.22
13553;BME280;6847;48.830;9.116;2023-02-19T11:27:00;98725.69;;;14.32;58.29
13553;BME280;6847;48.830;9.116;2023-02-19T11:29:33;98724.13;;;14.26;58.53
13553;BME280;6847;48.830;9.116;2023-02-19T11:32:29;98722.22;;;14.22;58.66
13553;BME280;6847;48.830;9.116;2023-02-19T11:35:16;98723.06;;;14.17;58.31
13553;BME280;6847;48.830;9.116;2023-02-19T11:37:53;98723.56;;;14.29;58.04
13553;BME280;6847;48.830;9.116;2023-02-19T11:40:23;98734.66;;;14.43;58.09
13553;BME280;6847;48.830;9.116;2023-02-19T11:42:59;98740.81;;;14.64;57.58
13553;BME280;6847;48.830;9.116;2023-02-19T11:45:36;98735.28;;;14.74;57.67
13553;BME280;6847;48.830;9.116;2023-02-19T11:48:28;98741.47;;;14.85;57.33
13553;BME280;6847;48.830;9.116;2023-02-19T11:51:10;98748.88;;;14.79;57.31
13553;BME280;6847;48.830;9.116;2023-02-19T11:53:44;98738.56;;;14.76;57.37
13553;BME280;6847;48.830;9.116;2023-02-19T11:56:15;98748.22;;;14.92;57.45
13553;BME280;6847;48.830;9.116;2023-02-19T11:58:56;98741.97;;;14.92;57.15
13553;BME280;6847;48.830;9.116;2023-02-19T12:07:36;98779.97;;;14.78;57.16
13553;BME280;6847;48.830;9.116;2023-02-19T12:10:13;98756.00;;;14.70;57.41
13553;BME280;6847;48.830;9.116;2023-02-19T12:12:54;98750.56;;;14.70;57.20
13553;BME280;6847;48.830;9.116;2023-02-19T12:15:32;98746.19;;;14.74;57.30
13553;BME280;6847;48.830;9.116;2023-02-19T12:18:22;98743.66;;;14.88;56.89
13553;BME280;6847;48.830;9.116;2023-02-19T12:21:05;98696.06;;;14.70;56.73
13553;BME280;6847;48.830;9.116;2023-02-19T12:23:57;98732.69;;;14.93;56.46
13553;BME280;6847;48.830;9.116;2023-02-19T12:26:36;98723.66;;;14.97;56.65
13553;BME280;6847;48.830;9.116;2023-02-19T12:29:23;98718.13;;;15.07;56.62
13553;BME280;6847;48.830;9.116;2023-02-19T12:35:17;98721.03;;;14.87;56.56
13553;BME280;6847;48.830;9.116;2023-02-19T12:37:50;98703.03;;;14.86;56.61
13553;BME280;6847;48.830;9.116;2023-02-19T12:40:32;98725.78;;;15.05;56.47
13553;BME280;6847;48.830;9.116;2023-02-19T12:43:08;98734.16;;;15.14;56.39
13553;BME280;6847;48.830;9.116;2023-02-19T12:45:41;98735.97;;;15.24;56.53
13553;BME280;6847;48.830;9.116;2023-02-19T12:48:16;98723.16;;;15.24;56.17
13553;BME280;6847;48.830;9.116;2023-02-19T12:50:47;98718.16;;;15.31;56.15
13553;BME280;6847;48.830;9.116;2023-02-19T12:53:24;98717.41;;;15.26;56.26
13553;BME280;6847;48.830;9.116;2023-02-19T12:55:56;98712.81;;;15.21;56.10
13553;BME280;6847;48.830;9.116;2023-02-19T12:58:27;98688.69;;;15.04;55.98
13553;BME280;6847;48.830;9.116;2023-02-19T13:00:57;98731.19;;;15.39;55.78
13553;BME280;6847;48.830;9.116;2023-02-19T13:03:29;98717.72;;;15.48;55.32
13553;BME280;6847;48.830;9.116;2023-02-19T13:06:01;98710.66;;;15.47;55.49
13553;BME280;6847;48.830;9.116;2023-02-19T13:08:31;98727.06;;;15.42;55.63
13553;BME280;6847;48.830;9.116;2023-02-19T13:11:07;98731.00;;;15.31;55.59
13553;BME280;6847;48.830;9.116;2023-02-19T13:13:39;98716.97;;;15.13;55.62
13553;BME280;6847;48.830;9.116;2023-02-19T13:16:13;98716.81;;;15.00;55.81
13553;BME280;6847;48.830;9.116;2023-02-19T13:18:44;98719.34;;;14.91;55.78
13553;BME280;6847;48.830;9.116;2023-02-19T13:21:11;98718.84;;;14.84;55.75
13553;BME280;6847;48.830;9.116;2023-02-19T13:24:00;98714.56;;;14.78;55.70
13553;BME280;6847;48.830;9.116;2023-02-19T13:26:47;98717.34;;;14.68;55.60
13553;BME280;6847;48.830;9.116;2023-02-19T13:29:37;98723.97;;;14.57;55.73
13553;BME280;6847;48.830;9.116;2023-02-19T13:32:35;98727.28;;;14.49;55.91
13553;BME280;6847;48.830;9.116;2023-02-19T13:35:20;98730.59;;;14.40;55.53
13553;BME280;6847;48.830;9.116;2023-02-19T13:37:49;98557.75;;;13.29;55.58
13553;BME280;6847;48.830;9.116;2023-02-19T13:40:21;98721.94;;;14.28;55.79
13553;BME280;6847;48.830;9.116;2023-02-19T13:42:53;98654.06;;;13.83;55.80
13553;BME280;6847;48.830;9.116;2023-02-19T13:45:25;98723.63;;;14.19;55.98
13553;BME280;6847;48.830;9.116;2023-02-19T13:48:01;98714.91;;;14.17;55.67